Terminal Aerodrome Forecast
Issued by NWS Quad Cities IA IL

Home | Current Version | Previous Version | Text Only | Print | Product List | Glossary On
Versions: 1 2 3 4 5 6 7 8 9 10 11 12 13 14 15 16
000
FTUS43 KDVN 281700
TAFMLI
TAF
KMLI 281740Z 2818/2918 15016G25KT P6SM BKN250
     FM290100 17012KT 6SM BR SCT015 BKN100
     FM291000 30014G20KT 5SM BR OVC025
     FM291400 32020G28KT P6SM OVC020=

USA.gov is the U.S. government's official web portal to all federal, state and local government web resources and services.